Time;durP1;ratioP1;P1;durP2;ratioP2;P2;SDS_P1;SDS_P2;PMS_P1;PMS_P2;Temp;Humidity;BMP_temperature;BMP_pressure;BME280_temperature;BME280_humidity;BME280_pressure;Samples;Min_cycle;Max_cycle;Signal;HPM_P1;HPM_P2
2023/04/06 00:02:24;;;;;;;;;24.00;21.00;;;;;6.40;39.33;99138.38;6159552;28;96417;-63
2023/04/06 00:05:30;;;;;;;;;24.40;23.00;;;;;6.34;39.49;99128.41;6225333;27;96516;-63
2023/04/06 00:08:33;;;;;;;;;20.00;19.60;;;;;6.42;39.32;99136.31;6166800;28;96701;-62
2023/04/06 00:11:37;;;;;;;;;22.60;21.00;;;;;6.42;39.31;99141.69;6183000;27;96239;-63
2023/04/06 00:14:59;;;;;;;;;24.60;23.60;;;;;6.38;39.51;99140.41;6237314;27;96105;-63
2023/04/06 00:18:03;;;;;;;;;26.60;22.60;;;;;6.34;39.45;99139.97;6182809;27;96316;-63
2023/04/06 00:21:08;;;;;;;;;28.00;23.00;;;;;6.32;39.54;99135.78;6182951;28;96488;-63
2023/04/06 00:24:30;;;;;;;;;19.50;18.25;;;;;6.28;39.52;99134.53;6182884;28;96082;-62
2023/04/06 00:27:33;;;;;;;;;24.75;23.00;;;;;6.23;39.91;99135.09;6249132;27;96893;-63
2023/04/06 00:30:36;;;;;;;;;24.80;23.40;;;;;6.17;39.73;99125.13;6182387;28;96183;-63
2023/04/06 00:33:40;;;;;;;;;23.00;21.00;;;;;6.15;39.31;99115.63;6184300;28;96851;-63
2023/04/06 00:36:44;;;;;;;;;25.00;23.00;;;;;6.15;39.72;99129.00;6186542;28;96498;-63
2023/04/06 00:39:48;;;;;;;;;25.60;24.40;;;;;6.13;39.91;99128.38;6253287;27;96583;-63
2023/04/06 00:43:12;;;;;;;;;25.40;24.40;;;;;6.06;40.03;99125.59;6186620;28;96688;-63
2023/04/06 00:46:15;;;;;;;;;19.60;18.60;;;;;6.04;40.16;99120.44;6186412;28;96852;-63
2023/04/06 00:49:19;;;;;;;;;24.00;23.50;;;;;6.05;40.13;99121.28;6254127;27;96706;-63
2023/04/06 00:52:24;;;;;;;;;29.00;26.00;;;;;6.05;40.22;99121.28;6236058;27;99222;-63
2023/04/06 00:55:29;;;;;;;;;23.00;20.00;;;;;6.03;40.19;99124.13;6253217;27;96384;-63
2023/04/06 00:58:33;;;;;;;;;25.00;23.25;;;;;5.97;40.24;99111.50;6185672;28;96875;-63
2023/04/06 01:02:00;;;;;;;;;26.00;26.00;;;;;6.00;40.05;99119.16;6237710;27;96055;-63
2023/04/06 01:05:12;;;;;;;;;28.00;25.60;;;;;5.99;40.23;99111.31;6253007;27;96259;-63
2023/04/06 01:08:45;;;;;;;;;27.60;25.60;;;;;5.97;40.19;99116.84;6239501;27;96384;-62
2023/04/06 01:12:15;;;;;;;;;28.80;25.00;;;;;5.98;40.21;99106.97;6238572;27;96715;-63
2023/04/06 01:15:20;;;;;;;;;25.80;23.80;;;;;5.99;40.19;99108.63;6253998;27;96215;-63
2023/04/06 01:18:45;;;;;;;;;26.25;24.00;;;;;5.94;40.44;99103.00;6240239;27;96539;-63
2023/04/06 01:21:53;;;;;;;;;28.00;26.40;;;;;5.93;40.53;99109.38;6233676;27;98538;-63
2023/04/06 01:25:25;;;;;;;;;27.00;24.80;;;;;5.88;40.33;99109.09;6182880;28;96460;-62
2023/04/06 01:28:44;;;;;;;;;28.00;25.80;;;;;5.85;40.44;99104.09;6219916;27;96948;-63
2023/04/06 01:32:17;;;;;;;;;25.25;25.00;;;;;5.77;40.70;99105.03;6228539;27;96163;-63
2023/04/06 01:35:29;;;;;;;;;23.60;22.60;;;;;5.75;40.48;99104.41;6160134;27;96240;-63
2023/04/06 01:38:44;;;;;;;;;25.00;24.00;;;;;5.71;40.81;99091.56;6239562;27;96457;-63
2023/04/06 01:41:51;;;;;;;;;23.00;21.20;;;;;5.70;40.87;99100.59;6252177;27;96846;-63
2023/04/06 01:44:57;;;;;;;;;26.00;25.00;;;;;5.66;41.01;99097.47;6252576;27;97179;-63
2023/04/06 01:48:00;;;;;;;;;29.00;26.50;;;;;5.55;41.23;99087.25;6250873;27;96219;-63
2023/04/06 01:51:24;;;;;;;;;26.60;26.60;;;;;5.50;41.62;99100.34;6238278;27;96292;-63
2023/04/06 01:54:31;;;;;;;;;26.00;24.60;;;;;5.41;41.54;99096.09;6252657;27;96356;-63
2023/04/06 01:57:46;;;;;;;;;24.60;23.60;;;;;5.17;41.94;99067.78;6252560;27;96349;-63
2023/04/06 02:00:58;;;;;;;;;24.80;24.40;;;;;5.26;42.13;99097.91;6252012;27;97145;-63
2023/04/06 02:04:05;;;;;;;;;25.80;22.20;;;;;5.18;42.37;99085.47;6252593;27;96327;-63
2023/04/06 02:07:08;;;;;;;;;26.20;25.00;;;;;5.14;42.68;99094.84;6249031;27;96193;-63
2023/04/06 02:10:14;;;;;;;;;25.40;24.00;;;;;5.13;42.21;99085.19;6252288;27;96307;-63
2023/04/06 02:13:38;;;;;;;;;27.60;26.20;;;;;5.04;42.70;99081.75;6237424;27;96201;-63
2023/04/06 02:17:00;;;;;;;;;28.20;27.20;;;;;5.03;42.72;99088.13;6215107;27;96389;-63
2023/04/06 02:20:22;;;;;;;;;27.00;25.00;;;;;5.02;42.78;99086.47;6238924;27;96314;-63
2023/04/06 02:23:44;;;;;;;;;22.50;20.00;;;;;5.00;43.23;99085.81;6238573;27;96246;-63
2023/04/06 02:26:47;;;;;;;;;24.25;22.00;;;;;5.00;43.03;99074.28;6249668;27;99525;-63
2023/04/06 02:29:52;;;;;;;;;27.40;22.80;;;;;4.99;42.80;99069.94;6249729;27;98516;-63
2023/04/06 02:33:14;;;;;;;;;27.25;24.25;;;;;4.99;42.54;99075.28;6174862;28;96342;-63
2023/04/06 02:36:40;;;;;;;;;24.60;23.80;;;;;4.99;42.70;99078.78;6238647;27;96702;-63
2023/04/06 02:40:01;;;;;;;;;26.20;24.20;;;;;5.03;42.50;99085.47;6237595;27;96725;-63
2023/04/06 02:43:26;;;;;;;;;34.80;32.40;;;;;5.08;42.40;99085.72;6236071;27;96499;-64
2023/04/06 02:46:57;;;;;;;;;30.00;27.40;;;;;5.10;42.43;99085.53;6238195;27;96490;-65
2023/04/06 02:50:20;;;;;;;;;30.40;27.40;;;;;5.09;42.44;99090.06;6239199;27;96151;-64
2023/04/06 02:53:31;;;;;;;;;26.80;25.00;;;;;5.11;42.26;99088.03;6244533;27;96600;-65
2023/04/06 02:56:35;;;;;;;;;24.80;23.80;;;;;5.13;42.15;99088.66;6251512;27;96315;-64
2023/04/06 02:59:56;;;;;;;;;28.40;26.00;;;;;5.11;42.19;99090.72;6239900;27;96764;-64
2023/04/06 03:03:10;;;;;;;;;21.40;21.00;;;;;5.09;41.83;99094.56;6246335;27;98126;-64
2023/04/06 03:06:14;;;;;;;;;32.00;28.00;;;;;5.13;41.82;99094.03;6250847;27;97500;-64
2023/04/06 03:09:38;;;;;;;;;28.80;26.20;;;;;5.11;41.97;99092.56;6237828;27;96640;-64
2023/04/06 03:12:59;;;;;;;;;27.25;24.50;;;;;5.11;42.13;99084.53;6238856;27;96153;-65
2023/04/06 03:16:35;;;;;;;;;24.20;23.00;;;;;5.11;41.91;99090.72;6183390;28;96050;-65
2023/04/06 03:19:59;;;;;;;;;25.80;24.00;;;;;5.09;41.85;99086.53;6238723;27;96062;-64
2023/04/06 03:23:05;;;;;;;;;24.25;22.25;;;;;5.11;41.93;99089.88;6252344;27;96222;-65
2023/04/06 03:26:32;;;;;;;;;24.20;23.20;;;;;5.06;41.72;99089.59;6241431;27;96741;-64
2023/04/06 03:29:40;;;;;;;;;23.00;20.25;;;;;5.11;41.78;99089.88;6266078;27;96190;-64
2023/04/06 03:33:04;;;;;;;;;27.00;25.00;;;;;5.03;41.57;99076.59;6251272;27;97133;-65
2023/04/06 03:36:35;;;;;;;;;25.00;23.40;;;;;5.11;41.40;99104.06;6237536;27;96039;-65
2023/04/06 03:39:58;;;;;;;;;30.25;29.25;;;;;5.11;41.55;99097.91;6238423;27;96218;-64
2023/04/06 03:43:20;;;;;;;;;27.00;26.00;;;;;5.11;41.77;99103.25;6235663;27;96538;-65
2023/04/06 03:46:23;;;;;;;;;24.00;22.80;;;;;5.11;41.59;99104.06;6242990;27;96899;-64
2023/04/06 03:49:32;;;;;;;;;25.00;24.00;;;;;5.13;41.69;99103.91;6184292;28;96221;-65
2023/04/06 03:52:56;;;;;;;;;24.80;22.80;;;;;5.13;41.53;99103.91;6236660;27;95950;-64
2023/04/06 03:56:17;;;;;;;;;25.60;24.40;;;;;5.08;41.71;99095.59;6236095;27;96291;-64
2023/04/06 03:59:40;;;;;;;;;24.60;23.00;;;;;5.09;41.65;99094.56;6209720;27;96585;-64
2023/04/06 04:02:43;;;;;;;;;29.50;26.00;;;;;5.02;41.53;99082.97;6212650;27;96337;-63
2023/04/06 04:06:05;;;;;;;;;24.60;23.60;;;;;5.11;41.65;99103.25;6225920;27;96482;-64
2023/04/06 04:09:29;;;;;;;;;25.25;24.00;;;;;5.09;41.47;99094.56;6174322;27;96734;-64
2023/04/06 04:12:32;;;;;;;;;25.60;23.60;;;;;5.08;41.74;99099.06;6246105;27;96364;-65
2023/04/06 04:15:54;;;;;;;;;27.20;25.80;;;;;5.05;42.08;99099.44;6239519;27;97051;-64
2023/04/06 04:18:58;;;;;;;;;26.00;23.60;;;;;5.00;41.62;99098.31;6235768;27;97813;-65
2023/04/06 04:22:20;;;;;;;;;25.60;22.60;;;;;5.07;41.73;99099.28;6184308;28;96350;-65
2023/04/06 04:25:25;;;;;;;;;29.80;28.20;;;;;5.11;41.55;99093.38;6253688;27;96644;-64
2023/04/06 04:28:48;;;;;;;;;25.00;23.20;;;;;5.13;41.85;99086.00;6257134;27;96334;-65
2023/04/06 04:32:10;;;;;;;;;25.20;23.20;;;;;5.14;42.59;99094.84;6186540;28;96148;-63
2023/04/06 04:35:32;;;;;;;;;30.00;28.00;;;;;5.09;43.02;99094.56;6235843;27;96527;-65
2023/04/06 04:38:55;;;;;;;;;21.40;19.00;;;;;5.08;42.74;99092.94;6231495;27;96711;-65
2023/04/06 04:42:19;;;;;;;;;31.20;27.80;;;;;5.10;42.88;99098.91;6164411;28;96147;-65
2023/04/06 04:45:45;;;;;;;;;32.00;29.00;;;;;5.04;43.40;99076.41;6235704;27;96050;-64
2023/04/06 04:49:06;;;;;;;;;30.00;27.00;;;;;5.23;43.59;99099.09;6220384;27;98420;-65
2023/04/06 04:52:30;;;;;;;;;28.00;26.40;;;;;5.34;43.17;99093.31;6163586;28;97212;-64
2023/04/06 04:56:07;;;;;;;;;25.25;24.25;;;;;5.41;43.33;99093.41;6220967;27;96267;-64
2023/04/06 04:59:30;;;;;;;;;30.00;26.00;;;;;5.38;43.24;99069.72;6172253;28;96483;-64
2023/04/06 05:02:40;;;;;;;;;28.00;25.80;;;;;5.57;43.14;99093.25;6259578;27;96380;-64
2023/04/06 05:06:10;;;;;;;;;25.00;24.40;;;;;5.69;42.89;99086.41;6224342;27;96208;-63
2023/04/06 05:09:17;;;;;;;;;29.00;27.00;;;;;5.75;42.80;99085.66;6250511;27;96683;-64
2023/04/06 05:12:21;;;;;;;;;29.67;28.67;;;;;5.88;42.51;99085.84;6252749;27;96232;-64
2023/04/06 05:15:37;;;;;;;;;28.60;24.80;;;;;5.97;42.55;99086.56;6274969;27;97221;-64
2023/04/06 05:19:08;;;;;;;;;27.20;25.00;;;;;6.13;42.15;99086.38;6179304;27;96096;-64
2023/04/06 05:22:37;;;;;;;;;27.40;25.00;;;;;6.25;42.19;99079.50;6235084;27;96453;-64
2023/04/06 05:26:02;;;;;;;;;26.00;26.00;;;;;6.46;41.36;99078.69;6256544;27;96107;-64
2023/04/06 05:29:24;;;;;;;;;29.00;26.00;;;;;6.60;41.08;99080.47;6184603;28;96815;-64
2023/04/06 05:32:48;;;;;;;;;29.00;28.00;;;;;6.75;41.08;99083.06;6239442;27;96497;-64
2023/04/06 05:36:11;;;;;;;;;31.00;27.80;;;;;6.85;40.74;99079.06;6238686;27;96638;-64
2023/04/06 05:39:19;;;;;;;;;31.75;29.25;;;;;6.93;40.19;99073.56;6253365;27;96232;-64
2023/04/06 05:42:27;;;;;;;;;30.50;26.00;;;;;7.02;40.03;99076.09;6255241;27;96217;-64
2023/04/06 05:45:34;;;;;;;;;33.40;28.60;;;;;7.10;39.73;99078.63;6253232;27;96215;-64
2023/04/06 05:48:42;;;;;;;;;33.60;30.00;;;;;7.17;39.57;99068.81;6253256;27;96219;-63
2023/04/06 05:52:06;;;;;;;;;27.80;25.80;;;;;7.21;39.48;99076.25;6245646;27;96137;-63
2023/04/06 05:55:10;;;;;;;;;30.60;28.60;;;;;7.28;39.37;99070.94;6175929;28;96303;-63
2023/04/06 05:58:18;;;;;;;;;30.00;28.00;;;;;7.32;38.93;99073.03;6249716;27;96277;-64
2023/04/06 06:01:42;;;;;;;;;29.20;28.00;;;;;7.43;38.83;99078.88;6237570;27;96026;-64
2023/04/06 06:05:07;;;;;;;;;30.00;28.40;;;;;7.51;38.81;99076.88;6219798;27;96560;-63
2023/04/06 06:08:10;;;;;;;;;31.40;28.20;;;;;7.48;38.20;99068.41;6252526;27;96325;-63
2023/04/06 06:11:14;;;;;;;;;21.80;20.00;;;;;7.57;36.63;99072.56;6241120;27;96297;-63
2023/04/06 06:14:36;;;;;;;;;22.00;19.00;;;;;7.66;36.55;99074.88;6254265;27;96675;-64
2023/04/06 06:17:58;;;;;;;;;20.50;18.50;;;;;7.75;35.73;99078.22;6240556;27;96209;-63
2023/04/06 06:21:22;;;;;;;;;19.00;18.00;;;;;7.87;35.07;99082.00;6254752;27;97435;-64
2023/04/06 06:24:44;;;;;;;;;20.50;18.25;;;;;7.94;35.22;99087.41;6185184;28;96433;-63
2023/04/06 06:28:08;;;;;;;;;21.00;20.00;;;;;7.88;34.54;99077.44;6268067;27;96353;-64
2023/04/06 06:31:12;;;;;;;;;20.00;18.00;;;;;8.00;34.92;99076.69;6245033;27;96431;-63
2023/04/06 06:34:16;;;;;;;;;25.67;24.00;;;;;8.07;34.86;99074.84;6264285;27;96427;-63
2023/04/06 06:37:40;;;;;;;;;21.00;18.00;;;;;8.19;34.22;99083.16;6254539;27;96565;-64
2023/04/06 06:41:06;;;;;;;;;20.00;17.80;;;;;8.27;34.31;99077.59;6240522;27;96331;-64
2023/04/06 06:44:31;;;;;;;;;19.40;18.40;;;;;8.32;34.01;99079.72;6254159;27;96810;-64
2023/04/06 06:47:34;;;;;;;;;15.20;15.20;;;;;8.30;33.63;99076.41;6195656;27;96177;-64
2023/04/06 06:50:56;;;;;;;;;19.00;16.00;;;;;8.32;33.70;99077.03;6241674;27;96377;-64
2023/04/06 06:54:19;;;;;;;;;20.20;18.80;;;;;8.34;33.46;99075.81;6187526;28;96410;-63
2023/04/06 06:57:42;;;;;;;;;16.80;15.00;;;;;8.26;33.61;99082.13;6240092;27;96742;-64
2023/04/06 07:01:06;;;;;;;;;16.00;15.00;;;;;8.19;33.78;99075.94;6241215;27;96226;-64
2023/04/06 07:04:28;;;;;;;;;14.00;13.40;;;;;8.18;33.38;99078.81;6240999;27;96319;-64
2023/04/06 07:07:50;;;;;;;;;18.00;16.40;;;;;8.23;34.20;99084.41;6240594;27;96080;-64
2023/04/06 07:11:13;;;;;;;;;18.00;16.00;;;;;8.32;34.11;99072.47;6187432;28;96113;-64
2023/04/06 07:14:36;;;;;;;;;16.20;14.20;;;;;8.37;33.72;99080.75;6187238;28;96161;-65
2023/04/06 07:17:59;;;;;;;;;17.00;16.00;;;;;8.45;33.68;99079.75;6187526;28;96183;-63
2023/04/06 07:21:21;;;;;;;;;17.00;16.00;;;;;8.60;33.63;99075.03;6240325;27;96254;-63
2023/04/06 07:24:43;;;;;;;;;19.40;19.00;;;;;8.61;33.59;99079.38;6239650;27;96646;-64
2023/04/06 07:28:06;;;;;;;;;17.60;16.00;;;;;8.61;33.88;99080.19;6186975;28;96418;-64
2023/04/06 07:31:30;;;;;;;;;17.00;16.50;;;;;8.65;32.86;99080.59;6239127;27;96100;-64
2023/04/06 07:34:52;;;;;;;;;18.00;17.00;;;;;8.75;33.26;99085.59;6240021;27;96827;-64
2023/04/06 07:38:14;;;;;;;;;14.80;13.80;;;;;8.66;33.04;99082.25;6240486;27;96622;-63
2023/04/06 07:41:35;;;;;;;;;16.00;15.00;;;;;8.66;33.23;99080.41;6240637;27;96445;-64
2023/04/06 07:44:59;;;;;;;;;16.00;16.00;;;;;8.64;32.76;99074.44;6243105;27;96361;-64
2023/04/06 07:48:21;;;;;;;;;15.40;15.40;;;;;8.64;32.58;99081.66;6189271;28;96127;-64
2023/04/06 07:51:43;;;;;;;;;17.60;17.00;;;;;8.51;32.83;99077.06;6242316;27;96082;-64
2023/04/06 07:55:06;;;;;;;;;16.00;15.60;;;;;8.49;33.29;99068.41;6243946;27;96204;-64
2023/04/06 07:58:28;;;;;;;;;18.00;15.60;;;;;8.49;33.57;99068.41;6189514;28;96235;-64
2023/04/06 08:01:51;;;;;;;;;19.00;19.00;;;;;8.63;33.16;99064.69;6190177;28;96311;-63
2023/04/06 08:05:13;;;;;;;;;15.60;15.00;;;;;8.79;32.90;99073.41;6243626;27;96095;-64
2023/04/06 08:08:35;;;;;;;;;21.40;20.40;;;;;8.95;32.71;99062.22;6250451;27;96225;-63
2023/04/06 08:11:57;;;;;;;;;15.00;14.20;;;;;9.18;32.74;99051.91;6222249;27;96409;-64
2023/04/06 08:15:00;;;;;;;;;18.25;17.25;;;;;9.33;32.31;99048.97;6220614;27;96177;-64
2023/04/06 08:18:05;;;;;;;;;14.00;14.00;;;;;9.58;31.92;99053.44;6246971;27;96784;-63
2023/04/06 08:21:08;;;;;;;;;18.40;17.00;;;;;9.76;32.40;99051.97;6282483;27;97229;-64
2023/04/06 08:24:12;;;;;;;;;16.60;15.60;;;;;9.86;31.56;99053.19;6299590;27;96365;-64
2023/04/06 08:27:17;;;;;;;;;19.50;17.50;;;;;9.96;31.25;99050.84;6227930;27;96307;-63
2023/04/06 08:30:20;;;;;;;;;18.60;17.40;;;;;10.10;30.79;99048.91;6214472;27;97657;-64
2023/04/06 08:33:25;;;;;;;;;16.80;15.40;;;;;10.21;30.70;99042.91;6188875;28;96185;-63
2023/04/06 08:36:29;;;;;;;;;17.00;17.00;;;;;10.39;30.32;99044.84;6304710;27;96368;-64
2023/04/06 08:39:33;;;;;;;;;16.75;15.00;;;;;10.85;30.20;99039.13;6238477;27;98378;-63
2023/04/06 08:42:42;;;;;;;;;18.40;17.00;;;;;11.11;29.33;99032.69;6236780;27;97312;-64
2023/04/06 08:45:45;;;;;;;;;18.50;17.00;;;;;11.51;29.42;99035.81;6177920;28;96298;-64
2023/04/06 08:48:50;;;;;;;;;13.00;13.00;;;;;11.88;28.67;99026.69;6253520;27;96227;-64
2023/04/06 08:51:54;;;;;;;;;13.40;13.40;;;;;11.83;28.38;99031.94;6255464;27;96583;-64
2023/04/06 08:54:57;;;;;;;;;14.33;14.00;;;;;11.92;28.46;99030.63;6254614;27;96447;-64
2023/04/06 08:58:01;;;;;;;;;13.80;12.80;;;;;11.85;28.07;99010.13;6188039;28;96388;-64
2023/04/06 09:01:08;;;;;;;;;14.00;13.50;;;;;11.64;28.14;99025.69;6253361;27;98376;-63
2023/04/06 09:04:13;;;;;;;;;13.00;12.75;;;;;11.39;28.72;99014.13;6187896;27;96815;-64
2023/04/06 09:07:17;;;;;;;;;15.25;15.00;;;;;11.20;28.83;99017.84;6253860;27;98802;-64
2023/04/06 09:10:23;;;;;;;;;17.60;15.00;;;;;10.96;29.12;99010.63;6187115;28;96652;-63
2023/04/06 09:13:26;;;;;;;;;15.60;15.00;;;;;10.81;29.61;99016.34;6185036;27;96636;-63
2023/04/06 09:16:40;;;;;;;;;15.00;15.00;;;;;10.67;29.53;99017.50;6185665;28;96818;-64
2023/04/06 09:19:49;;;;;;;;;12.50;11.00;;;;;10.66;30.08;99023.91;6187271;28;96791;-64
2023/04/06 09:22:52;;;;;;;;;13.60;12.60;;;;;10.53;29.62;99013.25;6186562;28;96378;-63
2023/04/06 09:26:06;;;;;;;;;16.40;16.00;;;;;10.45;30.24;99011.66;6185747;28;96876;-63
2023/04/06 09:29:10;;;;;;;;;17.00;14.75;;;;;10.36;30.08;99004.88;6252085;27;96670;-63
2023/04/06 09:32:16;;;;;;;;;14.75;14.50;;;;;10.24;30.67;99007.44;6201469;27;96325;-63
2023/04/06 09:35:22;;;;;;;;;14.00;12.00;;;;;10.34;30.67;99001.56;6254583;27;96495;-64
2023/04/06 09:38:26;;;;;;;;;15.00;14.50;;;;;10.31;30.48;99008.19;6254814;27;96329;-63
2023/04/06 09:41:30;;;;;;;;;14.00;14.00;;;;;10.23;30.46;98994.16;6186118;28;96148;-63
2023/04/06 09:44:34;;;;;;;;;13.80;13.40;;;;;10.26;30.87;99005.31;6251439;27;96722;-63
2023/04/06 09:47:40;;;;;;;;;17.00;16.25;;;;;10.16;31.48;99004.16;6253329;27;98549;-63
2023/04/06 09:50:45;;;;;;;;;12.20;11.80;;;;;10.23;31.32;98995.00;6186978;28;96240;-63
2023/04/06 09:53:53;;;;;;;;;12.00;12.00;;;;;10.31;31.63;98997.41;6186720;28;96414;-64
2023/04/06 09:56:59;;;;;;;;;14.20;12.60;;;;;10.31;31.64;99002.81;6254994;27;96410;-63
2023/04/06 10:00:10;;;;;;;;;15.40;14.60;;;;;10.07;31.77;98975.81;6237362;27;96732;-64
2023/04/06 10:03:21;;;;;;;;;16.00;14.00;;;;;10.25;32.05;98997.47;6234935;27;96024;-63
2023/04/06 10:06:29;;;;;;;;;14.80;12.80;;;;;10.24;32.12;98990.44;6232182;27;96349;-63
2023/04/06 10:09:35;;;;;;;;;14.50;13.00;;;;;10.20;32.61;98995.44;6253181;27;97395;-63
2023/04/06 10:12:41;;;;;;;;;13.25;12.50;;;;;10.33;32.59;99000.72;6255015;27;96324;-63
2023/04/06 10:15:45;;;;;;;;;14.75;14.00;;;;;10.32;32.88;99004.47;6252883;27;96909;-63
2023/04/06 10:18:55;;;;;;;;;19.00;18.00;;;;;10.13;33.94;98991.91;6253464;27;98379;-63
2023/04/06 10:22:01;;;;;;;;;17.00;17.00;;;;;10.14;33.59;98990.88;6186745;28;96223;-63
2023/04/06 10:25:05;;;;;;;;;16.00;13.25;;;;;10.11;34.09;99001.25;6181773;28;96250;-63
2023/04/06 10:28:10;;;;;;;;;14.60;14.60;;;;;10.09;34.63;99000.63;6228343;27;96365;-64
2023/04/06 10:31:13;;;;;;;;;13.33;13.00;;;;;10.00;35.59;98990.13;6174907;28;96316;-63
2023/04/06 10:34:16;;;;;;;;;16.00;15.80;;;;;9.84;36.20;98981.72;6173339;28;96756;-63
2023/04/06 10:37:22;;;;;;;;;16.00;15.00;;;;;9.87;36.67;98984.00;6185081;27;96428;-64
2023/04/06 10:40:26;;;;;;;;;23.40;22.20;;;;;9.73;38.73;98988.59;6252596;27;96224;-63
2023/04/06 10:43:34;;;;;;;;;18.00;18.00;;;;;9.55;39.36;98988.47;6185515;28;96230;-63
2023/04/06 10:46:38;;;;;;;;;19.40;18.00;;;;;9.52;39.59;98983.50;6232922;27;96624;-64
2023/04/06 10:49:41;;;;;;;;;12.60;11.40;;;;;9.39;40.14;98986.22;6177788;28;96238;-64
2023/04/06 10:52:47;;;;;;;;;17.50;15.50;;;;;9.42;39.18;98977.75;6185474;28;96296;-63
2023/04/06 10:55:50;;;;;;;;;17.00;15.00;;;;;9.43;40.19;98984.78;6184743;28;96475;-64
2023/04/06 10:58:56;;;;;;;;;14.00;14.00;;;;;9.30;39.80;98977.56;6184736;28;96168;-63
2023/04/06 11:02:00;;;;;;;;;18.00;17.60;;;;;9.30;40.31;98974.88;6244898;27;96773;-63
2023/04/06 11:05:03;;;;;;;;;15.00;14.80;;;;;9.48;39.74;98975.00;6244424;27;96410;-63
2023/04/06 11:08:08;;;;;;;;;15.80;15.00;;;;;9.37;39.79;98964.94;6228578;27;98347;-62
2023/04/06 11:11:15;;;;;;;;;16.25;14.25;;;;;9.29;41.25;98959.75;6170909;28;96605;-64
2023/04/06 11:14:18;;;;;;;;;19.60;18.00;;;;;9.25;40.37;98963.91;6250505;27;96235;-63
2023/04/06 11:17:27;;;;;;;;;18.00;17.00;;;;;9.20;40.89;98965.59;6184111;28;96342;-64
2023/04/06 11:20:30;;;;;;;;;18.40;16.40;;;;;9.21;41.13;98960.00;6184713;28;96364;-63
2023/04/06 11:23:35;;;;;;;;;17.00;16.00;;;;;9.24;41.56;98964.13;6241342;27;96726;-64
2023/04/06 11:26:43;;;;;;;;;13.40;13.00;;;;;9.21;41.79;98962.69;6171107;28;96441;-64
2023/04/06 11:29:49;;;;;;;;;22.00;20.00;;;;;9.07;42.11;98964.59;6227318;27;96662;-64
2023/04/06 11:32:52;;;;;;;;;15.00;14.20;;;;;9.01;42.71;98956.53;6253997;27;98307;-63
2023/04/06 11:35:58;;;;;;;;;22.00;19.40;;;;;8.98;42.74;98955.09;6214252;27;98224;-63
2023/04/06 11:39:04;;;;;;;;;19.00;19.00;;;;;8.97;43.03;98958.00;6171287;28;96314;-64
2023/04/06 11:42:07;;;;;;;;;18.00;17.00;;;;;8.89;43.40;98961.75;6169857;28;96302;-63
2023/04/06 11:45:16;;;;;;;;;13.00;11.75;;;;;8.85;43.78;98947.03;6260065;27;96513;-64
2023/04/06 11:48:21;;;;;;;;;18.00;17.00;;;;;8.89;44.20;98947.47;6183270;28;96551;-64
2023/04/06 11:51:27;;;;;;;;;15.50;15.00;;;;;8.96;44.42;98957.16;6178998;28;96417;-63
2023/04/06 11:54:33;;;;;;;;;17.00;17.00;;;;;9.10;43.84;98949.88;6176252;28;97459;-64
2023/04/06 11:57:37;;;;;;;;;18.60;17.60;;;;;9.11;44.60;98957.75;6271305;27;96208;-63
2023/04/06 12:00:44;;;;;;;;;18.00;17.00;;;;;9.10;44.90;98947.19;6231103;27;97015;-64
2023/04/06 12:03:50;;;;;;;;;16.00;15.00;;;;;9.05;45.02;98939.75;6257762;27;97917;-63
2023/04/06 12:06:54;;;;;;;;;17.00;17.00;;;;;9.00;45.28;98936.03;6246675;27;96483;-63
2023/04/06 12:09:59;;;;;;;;;16.75;14.00;;;;;8.91;45.58;98935.44;6179320;28;96720;-64
2023/04/06 12:13:03;;;;;;;;;14.40;13.80;;;;;8.83;46.16;98935.69;6248999;27;98582;-64
2023/04/06 12:16:07;;;;;;;;;16.60;15.00;;;;;8.84;46.70;98941.88;6268153;27;96208;-63
2023/04/06 12:19:10;;;;;;;;;17.00;16.00;;;;;8.85;46.58;98938.13;6258660;27;97463;-63
2023/04/06 12:22:13;;;;;;;;;18.00;16.00;;;;;8.78;46.60;98929.28;6210126;27;96106;-63
2023/04/06 12:25:18;;;;;;;;;19.00;18.00;;;;;8.77;47.24;98933.81;6181559;28;96340;-63
2023/04/06 12:28:23;;;;;;;;;16.00;14.00;;;;;8.77;47.71;98938.38;6229877;27;96616;-63
2023/04/06 12:31:26;;;;;;;;;18.20;16.80;;;;;8.74;47.73;98934.25;6244716;27;97460;-63
2023/04/06 12:34:30;;;;;;;;;16.40;14.40;;;;;8.84;47.81;98933.81;6184877;28;96340;-64
2023/04/06 12:37:33;;;;;;;;;19.00;17.40;;;;;8.77;47.38;98924.94;6185512;28;96514;-63
2023/04/06 12:40:39;;;;;;;;;20.80;19.20;;;;;8.75;47.46;98924.34;6252016;27;96908;-63
2023/04/06 12:43:43;;;;;;;;;20.00;18.00;;;;;8.72;47.79;98917.50;6238149;27;97899;-63
2023/04/06 12:46:46;;;;;;;;;18.50;17.50;;;;;8.67;48.25;98918.13;6185515;28;96346;-63
2023/04/06 12:49:50;;;;;;;;;22.40;17.40;;;;;8.64;48.35;98910.50;6250378;27;96846;-63
2023/04/06 12:52:53;;;;;;;;;17.00;14.20;;;;;8.59;48.23;98912.16;6251234;27;98405;-63
2023/04/06 12:55:59;;;;;;;;;17.80;16.20;;;;;8.45;48.60;98910.50;6184018;28;96942;-63
2023/04/06 12:59:02;;;;;;;;;18.60;17.20;;;;;8.37;48.79;98911.53;6184424;28;96446;-63
2023/04/06 13:02:06;;;;;;;;;17.40;15.40;;;;;8.27;48.79;98911.06;6184513;27;96403;-63
2023/04/06 13:05:10;;;;;;;;;15.00;14.50;;;;;8.30;49.20;98904.50;6255253;27;96512;-63
2023/04/06 13:08:13;;;;;;;;;20.00;18.75;;;;;8.33;49.32;98898.72;6173395;28;96185;-63
2023/04/06 13:11:20;;;;;;;;;20.00;18.60;;;;;8.36;49.45;98899.13;6238882;27;96267;-63
2023/04/06 13:14:23;;;;;;;;;17.00;17.00;;;;;8.32;49.67;98886.31;6171592;28;96837;-63
2023/04/06 13:17:28;;;;;;;;;16.80;16.60;;;;;8.15;50.07;98888.56;6246672;27;98322;-63
2023/04/06 13:20:31;;;;;;;;;19.40;17.40;;;;;8.05;50.32;98883.59;6233732;27;98905;-63
2023/04/06 13:23:35;;;;;;;;;20.40;20.00;;;;;8.12;50.01;98886.28;6251794;27;98333;-63
2023/04/06 13:26:40;;;;;;;;;20.50;19.00;;;;;7.93;50.49;98870.97;6185358;28;96170;-63
2023/04/06 13:29:43;;;;;;;;;20.80;19.20;;;;;7.80;51.10;98872.63;6185616;28;96417;-63
2023/04/06 13:32:47;;;;;;;;;20.00;17.20;;;;;7.79;51.23;98875.50;6252594;27;96783;-63
2023/04/06 13:35:51;;;;;;;;;20.00;19.00;;;;;7.79;51.25;98880.88;6294476;27;96605;-63
2023/04/06 13:38:55;;;;;;;;;19.75;18.75;;;;;7.72;52.10;98863.97;6294018;27;98416;-63
2023/04/06 13:42:00;;;;;;;;;22.20;20.60;;;;;7.83;51.54;98874.06;6263642;27;96606;-63
2023/04/06 13:45:06;;;;;;;;;16.50;14.75;;;;;7.88;51.33;98873.44;6295430;27;96654;-63
2023/04/06 13:48:10;;;;;;;;;20.50;18.50;;;;;7.90;51.64;98872.22;6244777;27;97059;-63
2023/04/06 13:51:14;;;;;;;;;20.40;19.60;;;;;8.04;51.48;98875.75;6280181;27;96243;-63
2023/04/06 13:54:17;;;;;;;;;24.40;24.00;;;;;7.90;51.62;98872.22;6196932;27;96568;-63
2023/04/06 13:57:22;;;;;;;;;21.75;20.00;;;;;7.92;51.58;98870.16;6252886;27;98987;-63
2023/04/06 14:00:26;;;;;;;;;22.00;20.75;;;;;7.95;51.95;98875.13;6249493;27;96707;-63
2023/04/06 14:03:29;;;;;;;;;24.60;22.00;;;;;7.93;51.63;98879.88;6273823;27;96200;-63
2023/04/06 14:06:33;;;;;;;;;23.00;21.00;;;;;7.89;51.72;98880.47;6218665;27;96247;-64
2023/04/06 14:09:36;;;;;;;;;24.00;23.00;;;;;7.90;51.86;98872.22;6209719;27;96461;-63
2023/04/06 14:12:50;;;;;;;;;27.00;25.00;;;;;7.92;51.55;98877.38;6181896;27;96196;-63
2023/04/06 14:15:57;;;;;;;;;22.60;22.00;;;;;7.85;51.82;98866.66;6184212;27;96541;-63
2023/04/06 14:19:01;;;;;;;;;27.00;25.80;;;;;7.91;52.23;98878.44;6245382;27;96898;-63
2023/04/06 14:22:05;;;;;;;;;21.00;20.60;;;;;7.88;52.26;98884.19;6183162;28;96344;-63
2023/04/06 14:25:09;;;;;;;;;24.00;22.40;;;;;7.89;52.49;98884.00;6258741;27;97699;-63
2023/04/06 14:28:14;;;;;;;;;23.00;22.00;;;;;7.83;51.96;98879.44;6256576;27;96575;-63
2023/04/06 14:31:17;;;;;;;;;23.25;21.25;;;;;7.88;52.36;98881.50;6250856;27;97074;-63
2023/04/06 14:34:21;;;;;;;;;24.25;23.00;;;;;7.93;52.16;98882.56;6256485;27;96554;-63
2023/04/06 14:37:24;;;;;;;;;29.50;28.00;;;;;8.00;51.92;98882.56;6255079;27;96602;-63
2023/04/06 14:40:27;;;;;;;;;26.00;25.40;;;;;7.85;52.46;98880.06;6184569;27;96608;-64
2023/04/06 14:43:32;;;;;;;;;25.00;23.60;;;;;7.94;52.11;98886.06;6245243;27;99211;-64
2023/04/06 14:46:35;;;;;;;;;27.00;25.60;;;;;8.02;52.07;98881.31;6249132;27;97057;-63
2023/04/06 14:49:39;;;;;;;;;30.00;29.00;;;;;8.05;52.30;98880.09;6279219;27;96479;-64